sensor_id;sensor_type;location;lat;lon;timestamp;temperature;humidity
21582;DHT22;10952;50.836;4.348;2022-07-29T00:00:36;21.10;97.40
21582;DHT22;10952;50.836;4.348;2022-07-29T00:03:02;21.10;97.50
21582;DHT22;10952;50.836;4.348;2022-07-29T00:05:27;21.10;97.60
21582;DHT22;10952;50.836;4.348;2022-07-29T00:07:53;21.20;97.50
21582;DHT22;10952;50.836;4.348;2022-07-29T00:10:19;21.20;97.50
21582;DHT22;10952;50.836;4.348;2022-07-29T00:12:45;21.20;97.40
21582;DHT22;10952;50.836;4.348;2022-07-29T00:15:11;21.20;97.50
21582;DHT22;10952;50.836;4.348;2022-07-29T00:17:36;21.30;97.40
21582;DHT22;10952;50.836;4.348;2022-07-29T00:20:03;21.20;97.40
21582;DHT22;10952;50.836;4.348;2022-07-29T00:22:29;21.20;97.60
21582;DHT22;10952;50.836;4.348;2022-07-29T00:24:56;21.10;97.70
21582;DHT22;10952;50.836;4.348;2022-07-29T00:27:21;21.00;98.20
21582;DHT22;10952;50.836;4.348;2022-07-29T00:29:47;21.10;97.90
21582;DHT22;10952;50.836;4.348;2022-07-29T00:32:14;21.10;97.80
21582;DHT22;10952;50.836;4.348;2022-07-29T00:34:40;20.90;98.00
21582;DHT22;10952;50.836;4.348;2022-07-29T00:37:24;21.00;98.00
21582;DHT22;10952;50.836;4.348;2022-07-29T00:39:50;20.90;98.10
21582;DHT22;10952;50.836;4.348;2022-07-29T00:42:16;20.80;98.30
21582;DHT22;10952;50.836;4.348;2022-07-29T00:44:42;20.80;98.40
21582;DHT22;10952;50.836;4.348;2022-07-29T00:47:12;20.70;98.50
21582;DHT22;10952;50.836;4.348;2022-07-29T00:49:39;20.70;98.50
21582;DHT22;10952;50.836;4.348;2022-07-29T00:52:07;20.60;98.70
21582;DHT22;10952;50.836;4.348;2022-07-29T00:54:35;20.50;98.90
21582;DHT22;10952;50.836;4.348;2022-07-29T00:57:01;20.50;99.10
21582;DHT22;10952;50.836;4.348;2022-07-29T00:59:27;20.60;99.00
21582;DHT22;10952;50.836;4.348;2022-07-29T01:01:54;20.50;99.10
21582;DHT22;10952;50.836;4.348;2022-07-29T01:04:21;20.50;99.30
21582;DHT22;10952;50.836;4.348;2022-07-29T01:06:50;20.50;99.30
21582;DHT22;10952;50.836;4.348;2022-07-29T01:09:20;20.40;99.50
21582;DHT22;10952;50.836;4.348;2022-07-29T01:11:47;20.40;99.50
21582;DHT22;10952;50.836;4.348;2022-07-29T01:14:14;20.30;99.70
21582;DHT22;10952;50.836;4.348;2022-07-29T01:17:09;20.30;99.90
21582;DHT22;10952;50.836;4.348;2022-07-29T01:28:39;20.10;99.90
21582;DHT22;10952;50.836;4.348;2022-07-29T01:31:11;20.20;99.90
21582;DHT22;10952;50.836;4.348;2022-07-29T01:33:41;20.10;99.90
21582;DHT22;10952;50.836;4.348;2022-07-29T01:36:27;20.10;99.90
21582;DHT22;10952;50.836;4.348;2022-07-29T01:39:07;20.10;99.90
21582;DHT22;10952;50.836;4.348;2022-07-29T01:41:38;20.20;99.90
21582;DHT22;10952;50.836;4.348;2022-07-29T01:44:31;20.10;99.90
21582;DHT22;10952;50.836;4.348;2022-07-29T01:47:09;20.00;99.90
21582;DHT22;10952;50.836;4.348;2022-07-29T01:49:37;20.00;99.90
21582;DHT22;10952;50.836;4.348;2022-07-29T01:52:08;20.00;99.90
21582;DHT22;10952;50.836;4.348;2022-07-29T01:54:47;20.20;99.90
21582;DHT22;10952;50.836;4.348;2022-07-29T01:57:15;20.00;99.90
21582;DHT22;10952;50.836;4.348;2022-07-29T01:59:45;20.00;99.90
21582;DHT22;10952;50.836;4.348;2022-07-29T02:02:16;20.00;99.90
21582;DHT22;10952;50.836;4.348;2022-07-29T02:04:47;20.00;99.90
21582;DHT22;10952;50.836;4.348;2022-07-29T02:07:21;20.10;99.90
21582;DHT22;10952;50.836;4.348;2022-07-29T02:09:49;20.10;99.90
21582;DHT22;10952;50.836;4.348;2022-07-29T02:12:19;20.00;99.90
21582;DHT22;10952;50.836;4.348;2022-07-29T02:14:53;20.00;99.90
21582;DHT22;10952;50.836;4.348;2022-07-29T02:17:26;19.80;99.90
21582;DHT22;10952;50.836;4.348;2022-07-29T02:19:57;19.70;99.90
21582;DHT22;10952;50.836;4.348;2022-07-29T02:22:25;19.70;99.90
21582;DHT22;10952;50.836;4.348;2022-07-29T02:24:53;19.70;99.90
21582;DHT22;10952;50.836;4.348;2022-07-29T02:27:19;19.80;99.90
21582;DHT22;10952;50.836;4.348;2022-07-29T02:29:46;19.70;99.90
21582;DHT22;10952;50.836;4.348;2022-07-29T02:32:14;19.60;99.90
21582;DHT22;10952;50.836;4.348;2022-07-29T02:34:43;19.50;99.90
21582;DHT22;10952;50.836;4.348;2022-07-29T02:37:10;19.60;99.90
21582;DHT22;10952;50.836;4.348;2022-07-29T02:39:37;19.70;99.90
21582;DHT22;10952;50.836;4.348;2022-07-29T02:42:07;19.60;99.90
21582;DHT22;10952;50.836;4.348;2022-07-29T02:44:35;19.60;99.90
21582;DHT22;10952;50.836;4.348;2022-07-29T02:47:07;19.60;99.90
21582;DHT22;10952;50.836;4.348;2022-07-29T02:49:40;19.70;99.90
21582;DHT22;10952;50.836;4.348;2022-07-29T02:52:18;19.70;99.90
21582;DHT22;10952;50.836;4.348;2022-07-29T02:55:01;19.60;99.90
21582;DHT22;10952;50.836;4.348;2022-07-29T02:57:34;19.50;99.90
21582;DHT22;10952;50.836;4.348;2022-07-29T03:00:07;19.40;99.90
21582;DHT22;10952;50.836;4.348;2022-07-29T03:02:36;19.40;99.90
21582;DHT22;10952;50.836;4.348;2022-07-29T03:05:04;19.40;99.90
21582;DHT22;10952;50.836;4.348;2022-07-29T03:07:33;19.40;99.90
21582;DHT22;10952;50.836;4.348;2022-07-29T03:10:04;19.30;99.90
21582;DHT22;10952;50.836;4.348;2022-07-29T03:12:31;19.40;99.90
21582;DHT22;10952;50.836;4.348;2022-07-29T03:14:59;19.40;99.90
21582;DHT22;10952;50.836;4.348;2022-07-29T03:17:29;19.40;99.90
21582;DHT22;10952;50.836;4.348;2022-07-29T03:19:55;19.30;99.90
21582;DHT22;10952;50.836;4.348;2022-07-29T03:22:21;19.20;99.90
21582;DHT22;10952;50.836;4.348;2022-07-29T03:24:53;19.20;99.90
21582;DHT22;10952;50.836;4.348;2022-07-29T03:27:19;19.20;99.90
21582;DHT22;10952;50.836;4.348;2022-07-29T03:29:45;19.20;99.90
21582;DHT22;10952;50.836;4.348;2022-07-29T03:32:10;19.30;99.90
21582;DHT22;10952;50.836;4.348;2022-07-29T03:34:37;19.20;99.90
21582;DHT22;10952;50.836;4.348;2022-07-29T03:37:03;19.20;99.90
21582;DHT22;10952;50.836;4.348;2022-07-29T03:39:32;19.20;99.90
21582;DHT22;10952;50.836;4.348;2022-07-29T03:42:00;19.30;99.90
21582;DHT22;10952;50.836;4.348;2022-07-29T03:44:27;19.20;99.90
21582;DHT22;10952;50.836;4.348;2022-07-29T03:46:55;19.20;99.90
21582;DHT22;10952;50.836;4.348;2022-07-29T03:49:26;19.10;99.90
21582;DHT22;10952;50.836;4.348;2022-07-29T03:51:58;19.10;99.90
21582;DHT22;10952;50.836;4.348;2022-07-29T03:54:28;19.00;99.90
21582;DHT22;10952;50.836;4.348;2022-07-29T03:56:54;19.10;99.90
21582;DHT22;10952;50.836;4.348;2022-07-29T03:59:21;19.10;99.90
21582;DHT22;10952;50.836;4.348;2022-07-29T04:01:50;19.10;99.90
21582;DHT22;10952;50.836;4.348;2022-07-29T04:04:17;19.00;99.90
21582;DHT22;10952;50.836;4.348;2022-07-29T04:06:45;18.90;99.90
21582;DHT22;10952;50.836;4.348;2022-07-29T04:09:11;19.00;99.90
21582;DHT22;10952;50.836;4.348;2022-07-29T04:11:39;18.80;99.90
21582;DHT22;10952;50.836;4.348;2022-07-29T04:14:08;18.90;99.90
21582;DHT22;10952;50.836;4.348;2022-07-29T04:16:36;18.70;99.90
21582;DHT22;10952;50.836;4.348;2022-07-29T04:19:02;18.60;99.90
21582;DHT22;10952;50.836;4.348;2022-07-29T04:21:37;18.80;99.90
21582;DHT22;10952;50.836;4.348;2022-07-29T04:24:07;18.90;99.90
21582;DHT22;10952;50.836;4.348;2022-07-29T04:26:34;18.90;99.90
21582;DHT22;10952;50.836;4.348;2022-07-29T04:29:03;18.80;99.90
21582;DHT22;10952;50.836;4.348;2022-07-29T04:31:29;18.70;99.90
21582;DHT22;10952;50.836;4.348;2022-07-29T04:33:54;18.60;99.90
21582;DHT22;10952;50.836;4.348;2022-07-29T04:36:20;18.60;99.90
21582;DHT22;10952;50.836;4.348;2022-07-29T04:38:47;18.50;99.90
21582;DHT22;10952;50.836;4.348;2022-07-29T04:41:13;18.60;99.90
21582;DHT22;10952;50.836;4.348;2022-07-29T04:43:42;18.50;99.90
21582;DHT22;10952;50.836;4.348;2022-07-29T04:46:09;18.70;99.90
21582;DHT22;10952;50.836;4.348;2022-07-29T04:48:37;18.70;99.90
21582;DHT22;10952;50.836;4.348;2022-07-29T04:51:04;18.80;99.90
21582;DHT22;10952;50.836;4.348;2022-07-29T04:53:33;18.80;99.90
21582;DHT22;10952;50.836;4.348;2022-07-29T04:55:59;18.70;99.90
21582;DHT22;10952;50.836;4.348;2022-07-29T04:58:24;18.70;99.90
21582;DHT22;10952;50.836;4.348;2022-07-29T05:00:50;18.70;99.90
21582;DHT22;10952;50.836;4.348;2022-07-29T05:03:16;18.80;99.90
21582;DHT22;10952;50.836;4.348;2022-07-29T05:05:42;18.80;99.90
21582;DHT22;10952;50.836;4.348;2022-07-29T05:08:09;18.60;99.90
21582;DHT22;10952;50.836;4.348;2022-07-29T05:10:35;18.60;99.90
21582;DHT22;10952;50.836;4.348;2022-07-29T05:13:07;18.60;99.90
21582;DHT22;10952;50.836;4.348;2022-07-29T05:15:35;18.80;99.90
21582;DHT22;10952;50.836;4.348;2022-07-29T05:18:04;18.80;99.90
21582;DHT22;10952;50.836;4.348;2022-07-29T05:20:33;18.90;99.90
21582;DHT22;10952;50.836;4.348;2022-07-29T05:23:02;19.00;99.90
21582;DHT22;10952;50.836;4.348;2022-07-29T05:25:29;18.90;99.90
21582;DHT22;10952;50.836;4.348;2022-07-29T05:27:57;18.80;99.90
21582;DHT22;10952;50.836;4.348;2022-07-29T05:30:24;18.90;99.90
21582;DHT22;10952;50.836;4.348;2022-07-29T05:32:51;18.80;99.90
21582;DHT22;10952;50.836;4.348;2022-07-29T05:35:18;18.80;99.90
21582;DHT22;10952;50.836;4.348;2022-07-29T05:37:44;19.00;99.90
21582;DHT22;10952;50.836;4.348;2022-07-29T05:40:10;18.90;99.90
21582;DHT22;10952;50.836;4.348;2022-07-29T05:42:37;19.00;99.90
21582;DHT22;10952;50.836;4.348;2022-07-29T05:45:04;19.00;99.90
21582;DHT22;10952;50.836;4.348;2022-07-29T05:47:36;19.00;99.90
21582;DHT22;10952;50.836;4.348;2022-07-29T05:50:01;19.10;99.90
21582;DHT22;10952;50.836;4.348;2022-07-29T05:52:27;19.10;99.90
21582;DHT22;10952;50.836;4.348;2022-07-29T05:54:52;19.10;99.90
21582;DHT22;10952;50.836;4.348;2022-07-29T05:57:23;19.00;99.90
21582;DHT22;10952;50.836;4.348;2022-07-29T05:59:50;19.10;99.90
21582;DHT22;10952;50.836;4.348;2022-07-29T06:02:16;19.20;99.90
21582;DHT22;10952;50.836;4.348;2022-07-29T06:04:42;19.30;99.90
21582;DHT22;10952;50.836;4.348;2022-07-29T06:07:08;19.30;99.90
21582;DHT22;10952;50.836;4.348;2022-07-29T06:09:37;19.30;99.90
21582;DHT22;10952;50.836;4.348;2022-07-29T06:12:03;19.30;99.90
21582;DHT22;10952;50.836;4.348;2022-07-29T06:14:29;19.30;99.90
21582;DHT22;10952;50.836;4.348;2022-07-29T06:16:55;19.10;99.90
21582;DHT22;10952;50.836;4.348;2022-07-29T06:19:21;19.30;99.90
21582;DHT22;10952;50.836;4.348;2022-07-29T06:21:47;19.20;99.90
21582;DHT22;10952;50.836;4.348;2022-07-29T06:24:14;19.20;99.90
21582;DHT22;10952;50.836;4.348;2022-07-29T06:26:40;19.40;99.90
21582;DHT22;10952;50.836;4.348;2022-07-29T06:29:07;19.40;99.90
21582;DHT22;10952;50.836;4.348;2022-07-29T06:31:34;19.40;99.90
21582;DHT22;10952;50.836;4.348;2022-07-29T06:34:00;19.50;99.90
21582;DHT22;10952;50.836;4.348;2022-07-29T06:36:26;19.60;99.90
21582;DHT22;10952;50.836;4.348;2022-07-29T06:38:52;19.70;99.90
21582;DHT22;10952;50.836;4.348;2022-07-29T06:41:18;19.90;99.90
21582;DHT22;10952;50.836;4.348;2022-07-29T06:43:44;19.80;99.90
21582;DHT22;10952;50.836;4.348;2022-07-29T06:46:14;19.80;99.90
21582;DHT22;10952;50.836;4.348;2022-07-29T06:48:41;20.00;99.90
21582;DHT22;10952;50.836;4.348;2022-07-29T06:51:11;20.00;99.90
21582;DHT22;10952;50.836;4.348;2022-07-29T06:53:38;20.30;99.90
21582;DHT22;10952;50.836;4.348;2022-07-29T06:56:05;20.30;99.90
21582;DHT22;10952;50.836;4.348;2022-07-29T06:58:31;20.60;99.90
21582;DHT22;10952;50.836;4.348;2022-07-29T07:01:03;20.70;99.90
21582;DHT22;10952;50.836;4.348;2022-07-29T07:03:32;21.00;99.90
21582;DHT22;10952;50.836;4.348;2022-07-29T07:05:58;21.20;99.90
21582;DHT22;10952;50.836;4.348;2022-07-29T07:08:25;21.20;99.90
21582;DHT22;10952;50.836;4.348;2022-07-29T07:10:51;21.50;99.90
21582;DHT22;10952;50.836;4.348;2022-07-29T07:13:17;21.70;99.90
21582;DHT22;10952;50.836;4.348;2022-07-29T07:15:47;21.80;99.90
21582;DHT22;10952;50.836;4.348;2022-07-29T07:18:14;21.80;99.90
21582;DHT22;10952;50.836;4.348;2022-07-29T07:20:40;21.70;99.90
21582;DHT22;10952;50.836;4.348;2022-07-29T07:23:08;21.60;99.90
21582;DHT22;10952;50.836;4.348;2022-07-29T07:25:34;21.50;99.90
21582;DHT22;10952;50.836;4.348;2022-07-29T07:27:59;21.40;99.90
21582;DHT22;10952;50.836;4.348;2022-07-29T07:30:25;21.30;99.90
21582;DHT22;10952;50.836;4.348;2022-07-29T07:32:52;21.20;99.90
21582;DHT22;10952;50.836;4.348;2022-07-29T07:35:18;21.10;99.90
21582;DHT22;10952;50.836;4.348;2022-07-29T07:37:45;21.00;99.90
21582;DHT22;10952;50.836;4.348;2022-07-29T07:40:11;20.80;99.90
21582;DHT22;10952;50.836;4.348;2022-07-29T07:42:39;20.70;99.90
21582;DHT22;10952;50.836;4.348;2022-07-29T07:45:05;20.80;99.90
21582;DHT22;10952;50.836;4.348;2022-07-29T07:47:31;20.90;99.90
21582;DHT22;10952;50.836;4.348;2022-07-29T07:49:57;21.00;99.90
21582;DHT22;10952;50.836;4.348;2022-07-29T07:52:23;20.90;99.90
21582;DHT22;10952;50.836;4.348;2022-07-29T07:54:49;20.80;99.90
21582;DHT22;10952;50.836;4.348;2022-07-29T07:57:15;20.70;99.90
21582;DHT22;10952;50.836;4.348;2022-07-29T07:59:42;20.70;99.90
21582;DHT22;10952;50.836;4.348;2022-07-29T08:02:08;20.90;99.90
21582;DHT22;10952;50.836;4.348;2022-07-29T08:04:35;20.80;99.90
21582;DHT22;10952;50.836;4.348;2022-07-29T08:07:02;20.90;99.90
21582;DHT22;10952;50.836;4.348;2022-07-29T08:09:28;21.00;99.90
21582;DHT22;10952;50.836;4.348;2022-07-29T08:11:55;21.00;99.90
21582;DHT22;10952;50.836;4.348;2022-07-29T08:14:20;21.10;99.90
21582;DHT22;10952;50.836;4.348;2022-07-29T08:16:46;21.40;99.90
21582;DHT22;10952;50.836;4.348;2022-07-29T08:19:12;21.50;99.90
21582;DHT22;10952;50.836;4.348;2022-07-29T08:21:39;21.60;99.90
21582;DHT22;10952;50.836;4.348;2022-07-29T08:24:05;21.60;99.90
21582;DHT22;10952;50.836;4.348;2022-07-29T08:26:49;21.70;99.90
21582;DHT22;10952;50.836;4.348;2022-07-29T08:29:15;21.70;99.90
21582;DHT22;10952;50.836;4.348;2022-07-29T08:31:42;21.80;99.90
21582;DHT22;10952;50.836;4.348;2022-07-29T08:34:09;21.90;99.90
21582;DHT22;10952;50.836;4.348;2022-07-29T08:36:35;22.00;99.90
21582;DHT22;10952;50.836;4.348;2022-07-29T08:39:01;22.10;99.90
21582;DHT22;10952;50.836;4.348;2022-07-29T08:41:27;22.10;99.90
21582;DHT22;10952;50.836;4.348;2022-07-29T08:43:54;22.00;99.90
21582;DHT22;10952;50.836;4.348;2022-07-29T08:46:20;22.10;99.90
21582;DHT22;10952;50.836;4.348;2022-07-29T08:48:47;22.30;99.90
21582;DHT22;10952;50.836;4.348;2022-07-29T08:51:15;22.30;99.90
21582;DHT22;10952;50.836;4.348;2022-07-29T08:53:43;22.40;99.90
21582;DHT22;10952;50.836;4.348;2022-07-29T08:56:13;22.50;99.90
21582;DHT22;10952;50.836;4.348;2022-07-29T08:58:39;22.50;99.90
21582;DHT22;10952;50.836;4.348;2022-07-29T09:01:06;22.50;99.90
21582;DHT22;10952;50.836;4.348;2022-07-29T09:03:34;22.60;99.90
21582;DHT22;10952;50.836;4.348;2022-07-29T09:06:02;22.80;99.90
21582;DHT22;10952;50.836;4.348;2022-07-29T09:08:29;22.80;99.90
21582;DHT22;10952;50.836;4.348;2022-07-29T09:10:56;23.00;99.90
21582;DHT22;10952;50.836;4.348;2022-07-29T09:13:22;23.10;99.90
21582;DHT22;10952;50.836;4.348;2022-07-29T09:15:48;23.00;99.90
21582;DHT22;10952;50.836;4.348;2022-07-29T09:18:35;23.00;99.90
21582;DHT22;10952;50.836;4.348;2022-07-29T09:21:02;23.10;99.90
21582;DHT22;10952;50.836;4.348;2022-07-29T09:24:19;23.30;99.90
21582;DHT22;10952;50.836;4.348;2022-07-29T09:26:45;23.30;99.90
21582;DHT22;10952;50.836;4.348;2022-07-29T09:29:13;23.40;99.90
21582;DHT22;10952;50.836;4.348;2022-07-29T09:31:45;23.50;99.90
21582;DHT22;10952;50.836;4.348;2022-07-29T09:34:13;23.40;99.90
21582;DHT22;10952;50.836;4.348;2022-07-29T09:36:47;23.50;99.90
21582;DHT22;10952;50.836;4.348;2022-07-29T09:39:14;23.60;99.90
21582;DHT22;10952;50.836;4.348;2022-07-29T09:41:51;23.70;99.90
21582;DHT22;10952;50.836;4.348;2022-07-29T09:44:22;23.80;99.90
21582;DHT22;10952;50.836;4.348;2022-07-29T09:47:04;23.90;99.90
21582;DHT22;10952;50.836;4.348;2022-07-29T09:49:57;24.00;99.90
21582;DHT22;10952;50.836;4.348;2022-07-29T09:52:25;24.10;99.90
21582;DHT22;10952;50.836;4.348;2022-07-29T09:54:53;24.40;99.90
21582;DHT22;10952;50.836;4.348;2022-07-29T09:57:27;24.80;99.90
21582;DHT22;10952;50.836;4.348;2022-07-29T10:02:28;26.80;98.00
21582;DHT22;10952;50.836;4.348;2022-07-29T10:04:56;28.60;95.00
21582;DHT22;10952;50.836;4.348;2022-07-29T10:07:22;30.20;92.30
21582;DHT22;10952;50.836;4.348;2022-07-29T10:09:57;31.30;90.80
21582;DHT22;10952;50.836;4.348;2022-07-29T10:12:24;32.50;86.70
21582;DHT22;10952;50.836;4.348;2022-07-29T10:14:50;33.20;84.00
21582;DHT22;10952;50.836;4.348;2022-07-29T10:17:17;32.80;83.60
21582;DHT22;10952;50.836;4.348;2022-07-29T10:19:44;33.80;80.80
21582;DHT22;10952;50.836;4.348;2022-07-29T10:22:10;34.10;78.80
21582;DHT22;10952;50.836;4.348;2022-07-29T10:24:37;34.70;77.40
21582;DHT22;10952;50.836;4.348;2022-07-29T10:27:06;34.30;77.60
21582;DHT22;10952;50.836;4.348;2022-07-29T10:29:32;35.30;75.80
21582;DHT22;10952;50.836;4.348;2022-07-29T10:32:27;34.80;73.70
21582;DHT22;10952;50.836;4.348;2022-07-29T10:35:24;34.00;75.10
21582;DHT22;10952;50.836;4.348;2022-07-29T10:43:46;35.30;73.00
21582;DHT22;10952;50.836;4.348;2022-07-29T10:46:14;37.10;69.40
21582;DHT22;10952;50.836;4.348;2022-07-29T10:49:09;37.10;67.30
21582;DHT22;10952;50.836;4.348;2022-07-29T10:51:58;38.40;65.40
21582;DHT22;10952;50.836;4.348;2022-07-29T11:05:07;37.90;62.30
21582;DHT22;10952;50.836;4.348;2022-07-29T11:07:36;36.30;64.00
21582;DHT22;10952;50.836;4.348;2022-07-29T11:15:13;34.50;66.60
21582;DHT22;10952;50.836;4.348;2022-07-29T11:26:15;33.20;67.50
21582;DHT22;10952;50.836;4.348;2022-07-29T11:28:59;32.90;67.50
21582;DHT22;10952;50.836;4.348;2022-07-29T11:31:43;31.80;68.60
21582;DHT22;10952;50.836;4.348;2022-07-29T11:34:21;31.80;68.40
21582;DHT22;10952;50.836;4.348;2022-07-29T11:39:37;32.20;68.80
21582;DHT22;10952;50.836;4.348;2022-07-29T11:45:06;34.80;66.20
21582;DHT22;10952;50.836;4.348;2022-07-29T11:47:37;35.60;65.00
21582;DHT22;10952;50.836;4.348;2022-07-29T11:50:14;35.80;63.80
21582;DHT22;10952;50.836;4.348;2022-07-29T11:52:42;35.40;64.30
21582;DHT22;10952;50.836;4.348;2022-07-29T11:55:10;35.00;64.80
21582;DHT22;10952;50.836;4.348;2022-07-29T11:57:37;33.70;65.00
21582;DHT22;10952;50.836;4.348;2022-07-29T12:00:07;33.10;66.10
21582;DHT22;10952;50.836;4.348;2022-07-29T12:02:43;32.10;66.80
21582;DHT22;10952;50.836;4.348;2022-07-29T12:05:10;31.40;67.90
21582;DHT22;10952;50.836;4.348;2022-07-29T12:07:39;31.20;68.50
21582;DHT22;10952;50.836;4.348;2022-07-29T12:10:06;30.90;68.20
21582;DHT22;10952;50.836;4.348;2022-07-29T12:12:34;31.40;68.50
21582;DHT22;10952;50.836;4.348;2022-07-29T12:15:17;32.10;67.50
21582;DHT22;10952;50.836;4.348;2022-07-29T12:17:46;32.10;68.10
21582;DHT22;10952;50.836;4.348;2022-07-29T12:20:25;32.30;67.70
21582;DHT22;10952;50.836;4.348;2022-07-29T12:22:51;33.50;66.30
21582;DHT22;10952;50.836;4.348;2022-07-29T12:25:19;34.40;65.10
21582;DHT22;10952;50.836;4.348;2022-07-29T12:27:45;35.00;64.20
21582;DHT22;10952;50.836;4.348;2022-07-29T12:30:14;35.10;63.80
21582;DHT22;10952;50.836;4.348;2022-07-29T12:32:45;34.40;65.10
21582;DHT22;10952;50.836;4.348;2022-07-29T12:35:15;33.40;65.70
21582;DHT22;10952;50.836;4.348;2022-07-29T12:37:43;33.40;65.50
21582;DHT22;10952;50.836;4.348;2022-07-29T12:40:15;33.30;64.70
21582;DHT22;10952;50.836;4.348;2022-07-29T12:43:09;32.70;65.80
21582;DHT22;10952;50.836;4.348;2022-07-29T12:45:43;31.50;68.30
21582;DHT22;10952;50.836;4.348;2022-07-29T12:48:09;31.20;69.20
21582;DHT22;10952;50.836;4.348;2022-07-29T12:50:36;31.50;69.50
21582;DHT22;10952;50.836;4.348;2022-07-29T12:53:10;31.70;68.20
21582;DHT22;10952;50.836;4.348;2022-07-29T12:55:48;31.20;68.30
21582;DHT22;10952;50.836;4.348;2022-07-29T12:58:49;30.30;69.80
21582;DHT22;10952;50.836;4.348;2022-07-29T13:01:18;30.00;71.10
21582;DHT22;10952;50.836;4.348;2022-07-29T13:03:52;29.60;71.60
21582;DHT22;10952;50.836;4.348;2022-07-29T13:06:41;29.40;72.00
21582;DHT22;10952;50.836;4.348;2022-07-29T13:09:20;29.50;71.80
21582;DHT22;10952;50.836;4.348;2022-07-29T13:11:50;29.20;72.90
21582;DHT22;10952;50.836;4.348;2022-07-29T13:14:34;29.00;73.40
21582;DHT22;10952;50.836;4.348;2022-07-29T13:17:06;29.10;73.60
21582;DHT22;10952;50.836;4.348;2022-07-29T13:19:42;29.10;73.80
21582;DHT22;10952;50.836;4.348;2022-07-29T13:22:09;29.20;74.10
21582;DHT22;10952;50.836;4.348;2022-07-29T13:24:47;28.80;74.40
21582;DHT22;10952;50.836;4.348;2022-07-29T13:27:21;28.60;74.90
21582;DHT22;10952;50.836;4.348;2022-07-29T13:29:47;28.30;75.40
21582;DHT22;10952;50.836;4.348;2022-07-29T13:32:17;28.10;75.50
21582;DHT22;10952;50.836;4.348;2022-07-29T13:34:43;27.80;76.10
21582;DHT22;10952;50.836;4.348;2022-07-29T13:37:12;27.80;76.40
21582;DHT22;10952;50.836;4.348;2022-07-29T13:39:41;27.80;76.20
21582;DHT22;10952;50.836;4.348;2022-07-29T13:42:10;27.70;75.50
21582;DHT22;10952;50.836;4.348;2022-07-29T13:44:38;27.40;76.40
21582;DHT22;10952;50.836;4.348;2022-07-29T13:47:07;27.40;76.80
21582;DHT22;10952;50.836;4.348;2022-07-29T13:49:36;27.40;76.80
21582;DHT22;10952;50.836;4.348;2022-07-29T13:52:02;27.30;76.40
21582;DHT22;10952;50.836;4.348;2022-07-29T13:54:29;27.20;76.70
21582;DHT22;10952;50.836;4.348;2022-07-29T13:56:58;27.40;76.40
21582;DHT22;10952;50.836;4.348;2022-07-29T13:59:26;27.50;76.60
21582;DHT22;10952;50.836;4.348;2022-07-29T14:01:55;27.60;76.70
21582;DHT22;10952;50.836;4.348;2022-07-29T14:04:21;27.90;76.20
21582;DHT22;10952;50.836;4.348;2022-07-29T14:06:50;28.20;75.50
21582;DHT22;10952;50.836;4.348;2022-07-29T14:09:18;28.30;75.10
21582;DHT22;10952;50.836;4.348;2022-07-29T14:11:47;28.30;74.40
21582;DHT22;10952;50.836;4.348;2022-07-29T14:14:26;28.50;73.80
21582;DHT22;10952;50.836;4.348;2022-07-29T14:16:52;28.40;73.60
21582;DHT22;10952;50.836;4.348;2022-07-29T14:19:19;28.60;73.20
21582;DHT22;10952;50.836;4.348;2022-07-29T14:21:45;28.50;74.20
21582;DHT22;10952;50.836;4.348;2022-07-29T14:24:10;28.20;74.70
21582;DHT22;10952;50.836;4.348;2022-07-29T14:26:36;28.00;75.10
21582;DHT22;10952;50.836;4.348;2022-07-29T14:29:07;27.90;76.30
21582;DHT22;10952;50.836;4.348;2022-07-29T14:31:36;27.90;76.60
21582;DHT22;10952;50.836;4.348;2022-07-29T14:34:12;27.90;76.90
21582;DHT22;10952;50.836;4.348;2022-07-29T14:36:44;27.80;74.80
21582;DHT22;10952;50.836;4.348;2022-07-29T14:39:10;27.80;74.20
21582;DHT22;10952;50.836;4.348;2022-07-29T14:41:36;27.90;74.20
21582;DHT22;10952;50.836;4.348;2022-07-29T14:44:05;28.20;74.10
21582;DHT22;10952;50.836;4.348;2022-07-29T14:46:32;28.60;73.90
21582;DHT22;10952;50.836;4.348;2022-07-29T14:48:58;29.00;74.00
21582;DHT22;10952;50.836;4.348;2022-07-29T14:51:24;29.00;72.80
21582;DHT22;10952;50.836;4.348;2022-07-29T14:53:49;29.00;71.40
21582;DHT22;10952;50.836;4.348;2022-07-29T14:56:15;29.10;71.50
21582;DHT22;10952;50.836;4.348;2022-07-29T14:58:43;29.10;73.30
21582;DHT22;10952;50.836;4.348;2022-07-29T15:01:10;29.20;73.50
21582;DHT22;10952;50.836;4.348;2022-07-29T15:03:35;29.30;73.00
21582;DHT22;10952;50.836;4.348;2022-07-29T15:06:01;29.00;73.90
21582;DHT22;10952;50.836;4.348;2022-07-29T15:08:27;28.80;74.10
21582;DHT22;10952;50.836;4.348;2022-07-29T15:10:56;28.80;74.20
21582;DHT22;10952;50.836;4.348;2022-07-29T15:13:25;28.80;73.70
21582;DHT22;10952;50.836;4.348;2022-07-29T15:15:53;28.80;74.10
21582;DHT22;10952;50.836;4.348;2022-07-29T15:18:18;29.20;73.40
21582;DHT22;10952;50.836;4.348;2022-07-29T15:20:44;29.40;72.50
21582;DHT22;10952;50.836;4.348;2022-07-29T15:23:12;29.40;72.60
21582;DHT22;10952;50.836;4.348;2022-07-29T15:25:39;29.40;72.50
21582;DHT22;10952;50.836;4.348;2022-07-29T15:28:05;29.20;72.80
21582;DHT22;10952;50.836;4.348;2022-07-29T15:30:35;29.60;72.90
21582;DHT22;10952;50.836;4.348;2022-07-29T15:33:06;29.80;72.00
21582;DHT22;10952;50.836;4.348;2022-07-29T15:35:32;30.00;71.80
21582;DHT22;10952;50.836;4.348;2022-07-29T15:37:58;30.20;71.50
21582;DHT22;10952;50.836;4.348;2022-07-29T15:40:24;30.30;71.10
21582;DHT22;10952;50.836;4.348;2022-07-29T15:42:49;29.90;71.80
21582;DHT22;10952;50.836;4.348;2022-07-29T15:45:15;29.80;71.90
21582;DHT22;10952;50.836;4.348;2022-07-29T15:47:41;29.80;72.00
21582;DHT22;10952;50.836;4.348;2022-07-29T15:50:07;29.80;72.30
21582;DHT22;10952;50.836;4.348;2022-07-29T15:52:39;30.00;71.20
21582;DHT22;10952;50.836;4.348;2022-07-29T15:55:05;30.20;71.10
21582;DHT22;10952;50.836;4.348;2022-07-29T15:57:32;30.10;70.70
21582;DHT22;10952;50.836;4.348;2022-07-29T15:59:57;30.20;70.70
21582;DHT22;10952;50.836;4.348;2022-07-29T16:02:23;29.80;70.20
21582;DHT22;10952;50.836;4.348;2022-07-29T16:04:50;29.30;72.40
21582;DHT22;10952;50.836;4.348;2022-07-29T16:07:16;28.90;72.70
21582;DHT22;10952;50.836;4.348;2022-07-29T16:09:43;29.10;73.30
21582;DHT22;10952;50.836;4.348;2022-07-29T16:12:10;29.60;72.20
21582;DHT22;10952;50.836;4.348;2022-07-29T16:14:37;30.10;71.20
21582;DHT22;10952;50.836;4.348;2022-07-29T16:17:02;30.20;70.80
21582;DHT22;10952;50.836;4.348;2022-07-29T16:19:29;30.00;70.80
21582;DHT22;10952;50.836;4.348;2022-07-29T16:21:55;29.80;71.70
21582;DHT22;10952;50.836;4.348;2022-07-29T16:24:21;29.60;72.00
21582;DHT22;10952;50.836;4.348;2022-07-29T16:26:46;29.40;71.70
21582;DHT22;10952;50.836;4.348;2022-07-29T16:29:15;29.20;72.40